sensor_id;sensor_type;location;lat;lon;timestamp;P1;durP1;ratioP1;P2;durP2;ratioP2
13872;SDS011;7006;51.494;11.964;2022-09-01T00:00:24;5.30;;;2.10;;
13872;SDS011;7006;51.494;11.964;2022-09-01T00:02:53;4.83;;;2.67;;
13872;SDS011;7006;51.494;11.964;2022-09-01T00:05:20;3.43;;;1.80;;
13872;SDS011;7006;51.494;11.964;2022-09-01T00:07:47;4.37;;;1.80;;
13872;SDS011;7006;51.494;11.964;2022-09-01T00:10:14;3.90;;;2.00;;
13872;SDS011;7006;51.494;11.964;2022-09-01T00:12:41;6.90;;;2.43;;
13872;SDS011;7006;51.494;11.964;2022-09-01T00:15:10;3.57;;;1.83;;
13872;SDS011;7006;51.494;11.964;2022-09-01T00:17:39;3.17;;;2.00;;
13872;SDS011;7006;51.494;11.964;2022-09-01T00:20:06;4.67;;;1.67;;
13872;SDS011;7006;51.494;11.964;2022-09-01T00:22:33;2.50;;;1.70;;
13872;SDS011;7006;51.494;11.964;2022-09-01T00:24:59;3.20;;;1.93;;
13872;SDS011;7006;51.494;11.964;2022-09-01T00:27:26;3.23;;;1.70;;
13872;SDS011;7006;51.494;11.964;2022-09-01T00:29:52;3.17;;;1.70;;
13872;SDS011;7006;51.494;11.964;2022-09-01T00:32:19;2.80;;;1.93;;
13872;SDS011;7006;51.494;11.964;2022-09-01T00:34:47;4.30;;;2.00;;
13872;SDS011;7006;51.494;11.964;2022-09-01T00:37:13;4.17;;;1.90;;
13872;SDS011;7006;51.494;11.964;2022-09-01T00:39:39;5.93;;;2.10;;
13872;SDS011;7006;51.494;11.964;2022-09-01T00:42:06;4.00;;;2.40;;
13872;SDS011;7006;51.494;11.964;2022-09-01T00:44:32;3.17;;;2.07;;
13872;SDS011;7006;51.494;11.964;2022-09-01T00:47:00;3.20;;;1.90;;
13872;SDS011;7006;51.494;11.964;2022-09-01T00:49:28;3.80;;;2.07;;
13872;SDS011;7006;51.494;11.964;2022-09-01T00:51:59;3.70;;;2.33;;
13872;SDS011;7006;51.494;11.964;2022-09-01T00:54:28;2.87;;;1.93;;
13872;SDS011;7006;51.494;11.964;2022-09-01T00:56:56;4.80;;;1.90;;
13872;SDS011;7006;51.494;11.964;2022-09-01T00:59:23;2.90;;;1.80;;
13872;SDS011;7006;51.494;11.964;2022-09-01T01:01:51;3.37;;;2.10;;
13872;SDS011;7006;51.494;11.964;2022-09-01T01:04:17;6.07;;;2.17;;
13872;SDS011;7006;51.494;11.964;2022-09-01T01:06:44;5.03;;;2.37;;
13872;SDS011;7006;51.494;11.964;2022-09-01T01:09:15;2.67;;;1.80;;
13872;SDS011;7006;51.494;11.964;2022-09-01T01:11:42;4.17;;;2.07;;
13872;SDS011;7006;51.494;11.964;2022-09-01T01:14:10;4.33;;;2.30;;
13872;SDS011;7006;51.494;11.964;2022-09-01T01:16:37;4.07;;;2.00;;
13872;SDS011;7006;51.494;11.964;2022-09-01T01:19:08;3.17;;;2.07;;
13872;SDS011;7006;51.494;11.964;2022-09-01T01:21:58;2.90;;;1.93;;
13872;SDS011;7006;51.494;11.964;2022-09-01T01:24:43;4.00;;;2.10;;
13872;SDS011;7006;51.494;11.964;2022-09-01T01:27:11;6.10;;;2.03;;
13872;SDS011;7006;51.494;11.964;2022-09-01T01:29:40;2.80;;;1.80;;
13872;SDS011;7006;51.494;11.964;2022-09-01T01:32:06;5.57;;;2.30;;
13872;SDS011;7006;51.494;11.964;2022-09-01T01:34:37;4.20;;;1.73;;
13872;SDS011;7006;51.494;11.964;2022-09-01T01:37:06;4.90;;;2.07;;
13872;SDS011;7006;51.494;11.964;2022-09-01T01:39:35;4.00;;;2.20;;
13872;SDS011;7006;51.494;11.964;2022-09-01T01:42:06;3.73;;;1.93;;
13872;SDS011;7006;51.494;11.964;2022-09-01T01:44:33;5.13;;;2.30;;
13872;SDS011;7006;51.494;11.964;2022-09-01T01:47:02;3.50;;;2.30;;
13872;SDS011;7006;51.494;11.964;2022-09-01T01:49:32;3.23;;;1.80;;
13872;SDS011;7006;51.494;11.964;2022-09-01T01:51:59;3.90;;;2.20;;
13872;SDS011;7006;51.494;11.964;2022-09-01T01:54:27;6.30;;;2.00;;
13872;SDS011;7006;51.494;11.964;2022-09-01T01:56:56;2.70;;;1.80;;
13872;SDS011;7006;51.494;11.964;2022-09-01T01:59:24;2.60;;;1.90;;
13872;SDS011;7006;51.494;11.964;2022-09-01T02:01:50;3.20;;;1.80;;
13872;SDS011;7006;51.494;11.964;2022-09-01T02:04:18;2.70;;;2.00;;
13872;SDS011;7006;51.494;11.964;2022-09-01T02:06:45;3.57;;;2.20;;
13872;SDS011;7006;51.494;11.964;2022-09-01T02:09:12;3.33;;;1.80;;
13872;SDS011;7006;51.494;11.964;2022-09-01T02:11:39;3.83;;;1.87;;
13872;SDS011;7006;51.494;11.964;2022-09-01T02:14:06;3.47;;;1.80;;
13872;SDS011;7006;51.494;11.964;2022-09-01T02:16:35;3.80;;;2.40;;
13872;SDS011;7006;51.494;11.964;2022-09-01T02:19:03;2.63;;;1.83;;
13872;SDS011;7006;51.494;11.964;2022-09-01T02:21:30;3.60;;;2.10;;
13872;SDS011;7006;51.494;11.964;2022-09-01T02:23:58;5.57;;;2.07;;
13872;SDS011;7006;51.494;11.964;2022-09-01T02:26:26;4.13;;;2.00;;
13872;SDS011;7006;51.494;11.964;2022-09-01T02:28:56;3.70;;;2.23;;
13872;SDS011;7006;51.494;11.964;2022-09-01T02:31:26;2.90;;;1.93;;
13872;SDS011;7006;51.494;11.964;2022-09-01T02:33:54;3.20;;;2.00;;
13872;SDS011;7006;51.494;11.964;2022-09-01T02:36:21;3.33;;;2.03;;
13872;SDS011;7006;51.494;11.964;2022-09-01T02:38:49;4.97;;;2.50;;
13872;SDS011;7006;51.494;11.964;2022-09-01T02:41:16;3.23;;;2.10;;
13872;SDS011;7006;51.494;11.964;2022-09-01T02:43:45;3.50;;;2.23;;
13872;SDS011;7006;51.494;11.964;2022-09-01T02:46:12;4.00;;;1.97;;
13872;SDS011;7006;51.494;11.964;2022-09-01T02:48:40;2.33;;;1.70;;
13872;SDS011;7006;51.494;11.964;2022-09-01T02:51:15;5.33;;;2.33;;
13872;SDS011;7006;51.494;11.964;2022-09-01T02:53:43;2.90;;;2.20;;
13872;SDS011;7006;51.494;11.964;2022-09-01T02:56:13;4.50;;;2.20;;
13872;SDS011;7006;51.494;11.964;2022-09-01T02:58:43;2.80;;;2.10;;
13872;SDS011;7006;51.494;11.964;2022-09-01T03:01:11;3.90;;;2.60;;
13872;SDS011;7006;51.494;11.964;2022-09-01T03:03:39;3.03;;;2.07;;
13872;SDS011;7006;51.494;11.964;2022-09-01T03:06:05;4.93;;;2.20;;
13872;SDS011;7006;51.494;11.964;2022-09-01T03:08:35;3.53;;;2.70;;
13872;SDS011;7006;51.494;11.964;2022-09-01T03:11:03;6.17;;;2.40;;
13872;SDS011;7006;51.494;11.964;2022-09-01T03:13:31;4.70;;;2.50;;
13872;SDS011;7006;51.494;11.964;2022-09-01T03:15:57;2.83;;;2.10;;
13872;SDS011;7006;51.494;11.964;2022-09-01T03:18:23;4.13;;;2.20;;
13872;SDS011;7006;51.494;11.964;2022-09-01T03:20:50;3.67;;;2.90;;
13872;SDS011;7006;51.494;11.964;2022-09-01T03:23:17;3.30;;;2.40;;
13872;SDS011;7006;51.494;11.964;2022-09-01T03:25:45;4.27;;;2.67;;
13872;SDS011;7006;51.494;11.964;2022-09-01T03:28:12;3.17;;;2.30;;
13872;SDS011;7006;51.494;11.964;2022-09-01T03:30:42;4.20;;;2.20;;
13872;SDS011;7006;51.494;11.964;2022-09-01T03:33:10;4.50;;;2.80;;
13872;SDS011;7006;51.494;11.964;2022-09-01T03:35:37;4.87;;;2.73;;
13872;SDS011;7006;51.494;11.964;2022-09-01T03:38:03;5.90;;;2.50;;
13872;SDS011;7006;51.494;11.964;2022-09-01T03:40:31;4.77;;;2.50;;
13872;SDS011;7006;51.494;11.964;2022-09-01T03:43:02;5.03;;;2.63;;
13872;SDS011;7006;51.494;11.964;2022-09-01T03:45:30;3.60;;;2.33;;
13872;SDS011;7006;51.494;11.964;2022-09-01T03:48:00;3.67;;;2.20;;
13872;SDS011;7006;51.494;11.964;2022-09-01T03:50:33;4.53;;;2.97;;
13872;SDS011;7006;51.494;11.964;2022-09-01T03:53:09;4.73;;;3.00;;
13872;SDS011;7006;51.494;11.964;2022-09-01T03:55:36;6.00;;;3.40;;
13872;SDS011;7006;51.494;11.964;2022-09-01T03:58:05;3.90;;;2.50;;
13872;SDS011;7006;51.494;11.964;2022-09-01T04:00:33;4.13;;;2.80;;
13872;SDS011;7006;51.494;11.964;2022-09-01T04:03:03;4.33;;;2.73;;
13872;SDS011;7006;51.494;11.964;2022-09-01T04:05:32;4.47;;;2.60;;
13872;SDS011;7006;51.494;11.964;2022-09-01T04:08:00;3.43;;;3.00;;
13872;SDS011;7006;51.494;11.964;2022-09-01T04:10:28;5.30;;;2.83;;
13872;SDS011;7006;51.494;11.964;2022-09-01T04:12:56;3.17;;;2.53;;
13872;SDS011;7006;51.494;11.964;2022-09-01T04:15:25;5.07;;;3.63;;
13872;SDS011;7006;51.494;11.964;2022-09-01T04:17:52;3.90;;;2.50;;
13872;SDS011;7006;51.494;11.964;2022-09-01T04:20:33;4.80;;;2.50;;
13872;SDS011;7006;51.494;11.964;2022-09-01T04:23:11;4.33;;;2.57;;
13872;SDS011;7006;51.494;11.964;2022-09-01T04:25:40;3.97;;;2.60;;
13872;SDS011;7006;51.494;11.964;2022-09-01T04:28:07;4.80;;;2.83;;
13872;SDS011;7006;51.494;11.964;2022-09-01T04:30:42;4.80;;;2.70;;
13872;SDS011;7006;51.494;11.964;2022-09-01T04:33:09;4.50;;;2.80;;
13872;SDS011;7006;51.494;11.964;2022-09-01T04:35:37;5.30;;;2.83;;
13872;SDS011;7006;51.494;11.964;2022-09-01T04:38:04;3.70;;;2.67;;
13872;SDS011;7006;51.494;11.964;2022-09-01T04:40:32;3.87;;;3.00;;
13872;SDS011;7006;51.494;11.964;2022-09-01T04:43:03;5.80;;;3.00;;
13872;SDS011;7006;51.494;11.964;2022-09-01T04:45:29;4.47;;;2.67;;
13872;SDS011;7006;51.494;11.964;2022-09-01T04:47:57;5.80;;;2.87;;
13872;SDS011;7006;51.494;11.964;2022-09-01T04:50:24;4.60;;;3.03;;
13872;SDS011;7006;51.494;11.964;2022-09-01T04:52:56;3.87;;;2.80;;
13872;SDS011;7006;51.494;11.964;2022-09-01T04:55:24;4.40;;;2.93;;
13872;SDS011;7006;51.494;11.964;2022-09-01T04:57:53;5.03;;;2.90;;
13872;SDS011;7006;51.494;11.964;2022-09-01T05:00:22;6.47;;;3.03;;
13872;SDS011;7006;51.494;11.964;2022-09-01T05:02:50;4.77;;;3.10;;
13872;SDS011;7006;51.494;11.964;2022-09-01T05:05:20;8.17;;;3.10;;
13872;SDS011;7006;51.494;11.964;2022-09-01T05:07:48;5.07;;;3.27;;
13872;SDS011;7006;51.494;11.964;2022-09-01T05:10:19;4.73;;;2.87;;
13872;SDS011;7006;51.494;11.964;2022-09-01T05:12:46;6.80;;;3.20;;
13872;SDS011;7006;51.494;11.964;2022-09-01T05:15:13;4.37;;;3.03;;
13872;SDS011;7006;51.494;11.964;2022-09-01T05:17:41;4.67;;;3.00;;
13872;SDS011;7006;51.494;11.964;2022-09-01T05:20:08;4.40;;;3.40;;
13872;SDS011;7006;51.494;11.964;2022-09-01T05:22:37;8.20;;;3.37;;
13872;SDS011;7006;51.494;11.964;2022-09-01T05:25:05;5.25;;;3.30;;
13872;SDS011;7006;51.494;11.964;2022-09-01T05:27:38;4.33;;;3.37;;
13872;SDS011;7006;51.494;11.964;2022-09-01T05:30:06;5.43;;;3.10;;
13872;SDS011;7006;51.494;11.964;2022-09-01T05:32:33;7.60;;;3.33;;
13872;SDS011;7006;51.494;11.964;2022-09-01T05:35:01;4.53;;;3.07;;
13872;SDS011;7006;51.494;11.964;2022-09-01T05:37:30;5.77;;;2.93;;
13872;SDS011;7006;51.494;11.964;2022-09-01T05:39:59;5.70;;;3.20;;
13872;SDS011;7006;51.494;11.964;2022-09-01T05:42:26;6.63;;;3.60;;
13872;SDS011;7006;51.494;11.964;2022-09-01T05:44:53;10.10;;;3.53;;
13872;SDS011;7006;51.494;11.964;2022-09-01T05:47:19;5.97;;;3.20;;
13872;SDS011;7006;51.494;11.964;2022-09-01T05:49:47;4.87;;;3.30;;
13872;SDS011;7006;51.494;11.964;2022-09-01T05:52:14;6.00;;;3.60;;
13872;SDS011;7006;51.494;11.964;2022-09-01T05:54:40;5.57;;;3.50;;
13872;SDS011;7006;51.494;11.964;2022-09-01T05:57:08;7.30;;;3.57;;
13872;SDS011;7006;51.494;11.964;2022-09-01T05:59:35;7.40;;;3.93;;
13872;SDS011;7006;51.494;11.964;2022-09-01T06:02:02;6.80;;;3.77;;
13872;SDS011;7006;51.494;11.964;2022-09-01T06:04:32;6.13;;;4.40;;
13872;SDS011;7006;51.494;11.964;2022-09-01T06:06:59;6.13;;;3.57;;
13872;SDS011;7006;51.494;11.964;2022-09-01T06:09:27;5.60;;;3.70;;
13872;SDS011;7006;51.494;11.964;2022-09-01T06:11:53;9.73;;;3.90;;
13872;SDS011;7006;51.494;11.964;2022-09-01T06:14:22;4.53;;;3.57;;
13872;SDS011;7006;51.494;11.964;2022-09-01T06:16:48;6.80;;;3.60;;
13872;SDS011;7006;51.494;11.964;2022-09-01T06:19:17;7.53;;;4.00;;
13872;SDS011;7006;51.494;11.964;2022-09-01T06:21:44;6.50;;;4.13;;
13872;SDS011;7006;51.494;11.964;2022-09-01T06:24:11;8.53;;;4.23;;
13872;SDS011;7006;51.494;11.964;2022-09-01T06:26:38;4.97;;;3.53;;
13872;SDS011;7006;51.494;11.964;2022-09-01T06:29:05;4.63;;;3.50;;
13872;SDS011;7006;51.494;11.964;2022-09-01T06:31:35;4.80;;;3.70;;
13872;SDS011;7006;51.494;11.964;2022-09-01T06:34:03;8.90;;;4.00;;
13872;SDS011;7006;51.494;11.964;2022-09-01T06:36:34;5.50;;;3.77;;
13872;SDS011;7006;51.494;11.964;2022-09-01T06:39:04;6.50;;;3.90;;
13872;SDS011;7006;51.494;11.964;2022-09-01T06:41:32;9.23;;;3.57;;
13872;SDS011;7006;51.494;11.964;2022-09-01T06:44:00;6.00;;;3.80;;
13872;SDS011;7006;51.494;11.964;2022-09-01T06:46:27;6.20;;;3.20;;
13872;SDS011;7006;51.494;11.964;2022-09-01T06:48:55;7.57;;;4.20;;
13872;SDS011;7006;51.494;11.964;2022-09-01T06:51:23;6.13;;;3.60;;
13872;SDS011;7006;51.494;11.964;2022-09-01T06:53:52;5.03;;;3.40;;
13872;SDS011;7006;51.494;11.964;2022-09-01T06:56:23;6.40;;;3.50;;
13872;SDS011;7006;51.494;11.964;2022-09-01T06:58:52;6.93;;;3.47;;
13872;SDS011;7006;51.494;11.964;2022-09-01T07:01:19;8.63;;;3.60;;
13872;SDS011;7006;51.494;11.964;2022-09-01T07:03:47;10.20;;;3.97;;
13872;SDS011;7006;51.494;11.964;2022-09-01T07:06:16;11.00;;;3.50;;
13872;SDS011;7006;51.494;11.964;2022-09-01T07:08:43;6.03;;;3.20;;
13872;SDS011;7006;51.494;11.964;2022-09-01T07:11:15;9.00;;;3.70;;
13872;SDS011;7006;51.494;11.964;2022-09-01T07:13:52;9.83;;;3.60;;
13872;SDS011;7006;51.494;11.964;2022-09-01T07:16:19;5.53;;;3.67;;
13872;SDS011;7006;51.494;11.964;2022-09-01T07:18:48;6.00;;;3.20;;
13872;SDS011;7006;51.494;11.964;2022-09-01T07:21:14;6.23;;;3.30;;
13872;SDS011;7006;51.494;11.964;2022-09-01T07:23:42;12.53;;;3.67;;
13872;SDS011;7006;51.494;11.964;2022-09-01T07:26:10;6.80;;;3.80;;
13872;SDS011;7006;51.494;11.964;2022-09-01T07:28:42;5.80;;;3.50;;
13872;SDS011;7006;51.494;11.964;2022-09-01T07:31:14;6.53;;;3.67;;
13872;SDS011;7006;51.494;11.964;2022-09-01T07:33:44;5.90;;;3.47;;
13872;SDS011;7006;51.494;11.964;2022-09-01T07:36:14;4.47;;;2.70;;
13872;SDS011;7006;51.494;11.964;2022-09-01T07:38:43;6.93;;;3.00;;
13872;SDS011;7006;51.494;11.964;2022-09-01T07:41:10;5.90;;;2.73;;
13872;SDS011;7006;51.494;11.964;2022-09-01T07:43:37;13.30;;;3.20;;
13872;SDS011;7006;51.494;11.964;2022-09-01T07:46:06;9.33;;;3.30;;
13872;SDS011;7006;51.494;11.964;2022-09-01T07:48:32;7.83;;;3.07;;
13872;SDS011;7006;51.494;11.964;2022-09-01T07:50:59;5.17;;;2.73;;
13872;SDS011;7006;51.494;11.964;2022-09-01T07:53:26;6.23;;;2.80;;
13872;SDS011;7006;51.494;11.964;2022-09-01T07:55:57;4.77;;;2.70;;
13872;SDS011;7006;51.494;11.964;2022-09-01T07:58:25;8.17;;;2.50;;
13872;SDS011;7006;51.494;11.964;2022-09-01T08:00:53;3.63;;;2.30;;
13872;SDS011;7006;51.494;11.964;2022-09-01T08:03:22;6.33;;;2.63;;
13872;SDS011;7006;51.494;11.964;2022-09-01T08:05:49;5.97;;;2.90;;
13872;SDS011;7006;51.494;11.964;2022-09-01T08:08:21;5.67;;;2.63;;
13872;SDS011;7006;51.494;11.964;2022-09-01T08:10:48;3.87;;;2.30;;
13872;SDS011;7006;51.494;11.964;2022-09-01T08:13:16;6.70;;;2.50;;
13872;SDS011;7006;51.494;11.964;2022-09-01T08:15:43;4.47;;;1.93;;
13872;SDS011;7006;51.494;11.964;2022-09-01T08:18:09;3.47;;;1.87;;
13872;SDS011;7006;51.494;11.964;2022-09-01T08:20:37;3.33;;;2.00;;
13872;SDS011;7006;51.494;11.964;2022-09-01T08:23:09;3.43;;;2.10;;
13872;SDS011;7006;51.494;11.964;2022-09-01T08:25:36;5.37;;;2.30;;
13872;SDS011;7006;51.494;11.964;2022-09-01T08:28:03;8.83;;;2.20;;
13872;SDS011;7006;51.494;11.964;2022-09-01T08:30:31;10.13;;;4.60;;
13872;SDS011;7006;51.494;11.964;2022-09-01T08:32:58;4.83;;;2.60;;
13872;SDS011;7006;51.494;11.964;2022-09-01T08:35:25;3.33;;;1.80;;
13872;SDS011;7006;51.494;11.964;2022-09-01T08:37:53;5.73;;;2.57;;
13872;SDS011;7006;51.494;11.964;2022-09-01T08:40:20;3.37;;;1.87;;
13872;SDS011;7006;51.494;11.964;2022-09-01T08:42:51;4.60;;;2.10;;
13872;SDS011;7006;51.494;11.964;2022-09-01T08:45:21;4.70;;;1.90;;
13872;SDS011;7006;51.494;11.964;2022-09-01T08:47:52;4.07;;;1.90;;
13872;SDS011;7006;51.494;11.964;2022-09-01T08:50:19;8.50;;;2.80;;
13872;SDS011;7006;51.494;11.964;2022-09-01T08:52:46;7.30;;;2.30;;
13872;SDS011;7006;51.494;11.964;2022-09-01T08:55:17;5.40;;;2.30;;
13872;SDS011;7006;51.494;11.964;2022-09-01T08:57:50;5.17;;;2.17;;
13872;SDS011;7006;51.494;11.964;2022-09-01T09:00:20;5.00;;;2.20;;
13872;SDS011;7006;51.494;11.964;2022-09-01T09:03:04;4.50;;;2.87;;
13872;SDS011;7006;51.494;11.964;2022-09-01T09:05:37;13.03;;;2.43;;
13872;SDS011;7006;51.494;11.964;2022-09-01T09:08:23;3.87;;;2.50;;
13872;SDS011;7006;51.494;11.964;2022-09-01T09:10:59;6.00;;;2.23;;
13872;SDS011;7006;51.494;11.964;2022-09-01T09:13:30;4.40;;;2.17;;
13872;SDS011;7006;51.494;11.964;2022-09-01T09:16:05;4.00;;;2.83;;
13872;SDS011;7006;51.494;11.964;2022-09-01T09:18:36;5.43;;;2.33;;
13872;SDS011;7006;51.494;11.964;2022-09-01T09:21:07;4.87;;;2.57;;
13872;SDS011;7006;51.494;11.964;2022-09-01T09:23:39;6.40;;;2.90;;
13872;SDS011;7006;51.494;11.964;2022-09-01T09:26:07;5.33;;;2.60;;
13872;SDS011;7006;51.494;11.964;2022-09-01T09:28:34;5.50;;;2.93;;
13872;SDS011;7006;51.494;11.964;2022-09-01T09:33:55;4.17;;;2.13;;
13872;SDS011;7006;51.494;11.964;2022-09-01T09:36:24;4.43;;;2.67;;
13872;SDS011;7006;51.494;11.964;2022-09-01T09:39:06;5.00;;;2.13;;
13872;SDS011;7006;51.494;11.964;2022-09-01T09:41:35;3.00;;;1.70;;
13872;SDS011;7006;51.494;11.964;2022-09-01T09:44:04;3.37;;;1.97;;
13872;SDS011;7006;51.494;11.964;2022-09-01T09:46:34;3.70;;;2.00;;
13872;SDS011;7006;51.494;11.964;2022-09-01T09:49:08;3.50;;;2.20;;
13872;SDS011;7006;51.494;11.964;2022-09-01T09:51:36;4.40;;;2.00;;
13872;SDS011;7006;51.494;11.964;2022-09-01T09:54:16;4.90;;;1.50;;
13872;SDS011;7006;51.494;11.964;2022-09-01T09:56:45;4.40;;;1.60;;
13872;SDS011;7006;51.494;11.964;2022-09-01T09:59:21;4.90;;;1.30;;
13872;SDS011;7006;51.494;11.964;2022-09-01T10:01:49;3.03;;;1.10;;
13872;SDS011;7006;51.494;11.964;2022-09-01T10:04:31;5.67;;;1.37;;
13872;SDS011;7006;51.494;11.964;2022-09-01T10:07:00;3.30;;;1.80;;
13872;SDS011;7006;51.494;11.964;2022-09-01T10:09:35;4.50;;;3.47;;
13872;SDS011;7006;51.494;11.964;2022-09-01T10:12:02;3.80;;;1.73;;
13872;SDS011;7006;51.494;11.964;2022-09-01T10:14:32;2.40;;;1.30;;
13872;SDS011;7006;51.494;11.964;2022-09-01T10:17:02;2.50;;;1.30;;
13872;SDS011;7006;51.494;11.964;2022-09-01T10:19:32;2.60;;;1.30;;
13872;SDS011;7006;51.494;11.964;2022-09-01T10:22:00;7.20;;;1.73;;
13872;SDS011;7006;51.494;11.964;2022-09-01T10:24:28;3.90;;;1.70;;
13872;SDS011;7006;51.494;11.964;2022-09-01T10:26:56;3.50;;;1.20;;
13872;SDS011;7006;51.494;11.964;2022-09-01T10:29:26;2.90;;;1.30;;
13872;SDS011;7006;51.494;11.964;2022-09-01T10:31:55;7.07;;;1.43;;
13872;SDS011;7006;51.494;11.964;2022-09-01T10:34:21;2.90;;;1.20;;
13872;SDS011;7006;51.494;11.964;2022-09-01T10:36:49;3.77;;;1.20;;
13872;SDS011;7006;51.494;11.964;2022-09-01T10:39:17;3.30;;;1.53;;
13872;SDS011;7006;51.494;11.964;2022-09-01T10:41:45;6.67;;;1.30;;
13872;SDS011;7006;51.494;11.964;2022-09-01T10:44:19;3.80;;;1.10;;
13872;SDS011;7006;51.494;11.964;2022-09-01T10:46:47;3.63;;;1.00;;
13872;SDS011;7006;51.494;11.964;2022-09-01T10:49:19;2.37;;;1.27;;
13872;SDS011;7006;51.494;11.964;2022-09-01T10:51:56;3.37;;;1.40;;
13872;SDS011;7006;51.494;11.964;2022-09-01T10:57:30;2.30;;;1.37;;
13872;SDS011;7006;51.494;11.964;2022-09-01T11:03:32;5.57;;;1.70;;
13872;SDS011;7006;51.494;11.964;2022-09-01T11:06:02;3.30;;;1.00;;
13872;SDS011;7006;51.494;11.964;2022-09-01T11:08:42;2.10;;;0.93;;
13872;SDS011;7006;51.494;11.964;2022-09-01T11:11:28;2.83;;;1.30;;
13872;SDS011;7006;51.494;11.964;2022-09-01T11:13:56;1.93;;;0.80;;
13872;SDS011;7006;51.494;11.964;2022-09-01T11:16:25;3.93;;;1.00;;
13872;SDS011;7006;51.494;11.964;2022-09-01T11:18:54;1.80;;;0.80;;
13872;SDS011;7006;51.494;11.964;2022-09-01T11:21:23;3.70;;;0.80;;
13872;SDS011;7006;51.494;11.964;2022-09-01T11:26:52;5.20;;;1.10;;
13872;SDS011;7006;51.494;11.964;2022-09-01T11:32:17;3.10;;;1.03;;
13872;SDS011;7006;51.494;11.964;2022-09-01T11:34:44;2.70;;;0.93;;
13872;SDS011;7006;51.494;11.964;2022-09-01T11:37:14;2.90;;;0.90;;
13872;SDS011;7006;51.494;11.964;2022-09-01T11:39:45;1.80;;;0.90;;
13872;SDS011;7006;51.494;11.964;2022-09-01T11:42:18;2.00;;;0.70;;
13872;SDS011;7006;51.494;11.964;2022-09-01T11:44:50;4.00;;;1.10;;
13872;SDS011;7006;51.494;11.964;2022-09-01T11:47:20;4.47;;;1.10;;
13872;SDS011;7006;51.494;11.964;2022-09-01T11:49:50;2.50;;;0.97;;
13872;SDS011;7006;51.494;11.964;2022-09-01T11:52:19;4.43;;;1.00;;
13872;SDS011;7006;51.494;11.964;2022-09-01T11:54:47;2.10;;;1.10;;
13872;SDS011;7006;51.494;11.964;2022-09-01T11:57:19;3.00;;;0.73;;
13872;SDS011;7006;51.494;11.964;2022-09-01T11:59:47;2.30;;;1.10;;
13872;SDS011;7006;51.494;11.964;2022-09-01T12:02:17;2.00;;;0.80;;
13872;SDS011;7006;51.494;11.964;2022-09-01T12:04:45;3.23;;;1.10;;
13872;SDS011;7006;51.494;11.964;2022-09-01T12:07:12;3.33;;;0.80;;
13872;SDS011;7006;51.494;11.964;2022-09-01T12:09:41;1.80;;;0.60;;
13872;SDS011;7006;51.494;11.964;2022-09-01T12:14:55;2.50;;;0.73;;
13872;SDS011;7006;51.494;11.964;2022-09-01T12:17:22;6.73;;;1.60;;
13872;SDS011;7006;51.494;11.964;2022-09-01T12:19:49;4.17;;;1.70;;
13872;SDS011;7006;51.494;11.964;2022-09-01T12:22:16;4.10;;;1.10;;
13872;SDS011;7006;51.494;11.964;2022-09-01T12:24:44;3.47;;;1.13;;
13872;SDS011;7006;51.494;11.964;2022-09-01T12:27:12;2.80;;;0.90;;
13872;SDS011;7006;51.494;11.964;2022-09-01T12:29:40;3.23;;;0.97;;
13872;SDS011;7006;51.494;11.964;2022-09-01T12:32:07;4.20;;;0.80;;
13872;SDS011;7006;51.494;11.964;2022-09-01T12:34:36;2.00;;;0.90;;
13872;SDS011;7006;51.494;11.964;2022-09-01T12:37:05;1.90;;;0.90;;
13872;SDS011;7006;51.494;11.964;2022-09-01T12:39:34;3.57;;;1.40;;
13872;SDS011;7006;51.494;11.964;2022-09-01T12:42:04;2.50;;;0.90;;
13872;SDS011;7006;51.494;11.964;2022-09-01T12:44:45;1.73;;;0.70;;
13872;SDS011;7006;51.494;11.964;2022-09-01T12:53:01;17.57;;;13.97;;
13872;SDS011;7006;51.494;11.964;2022-09-01T12:55:30;7.33;;;5.00;;
13872;SDS011;7006;51.494;11.964;2022-09-01T12:57:58;12.27;;;9.23;;
13872;SDS011;7006;51.494;11.964;2022-09-01T13:00:27;8.57;;;4.20;;
13872;SDS011;7006;51.494;11.964;2022-09-01T13:03:04;2.70;;;1.00;;
13872;SDS011;7006;51.494;11.964;2022-09-01T13:05:33;1.70;;;0.70;;
13872;SDS011;7006;51.494;11.964;2022-09-01T13:08:01;1.97;;;1.00;;
13872;SDS011;7006;51.494;11.964;2022-09-01T13:10:30;4.50;;;1.33;;
13872;SDS011;7006;51.494;11.964;2022-09-01T13:12:58;3.13;;;0.90;;
13872;SDS011;7006;51.494;11.964;2022-09-01T13:15:27;2.00;;;0.90;;
13872;SDS011;7006;51.494;11.964;2022-09-01T13:17:55;2.80;;;1.00;;
13872;SDS011;7006;51.494;11.964;2022-09-01T13:20:22;2.90;;;0.70;;
13872;SDS011;7006;51.494;11.964;2022-09-01T13:22:48;2.83;;;1.30;;
13872;SDS011;7006;51.494;11.964;2022-09-01T13:25:17;3.40;;;0.80;;
13872;SDS011;7006;51.494;11.964;2022-09-01T13:27:45;3.10;;;1.33;;
13872;SDS011;7006;51.494;11.964;2022-09-01T13:30:13;2.80;;;1.07;;
13872;SDS011;7006;51.494;11.964;2022-09-01T13:32:41;2.37;;;0.77;;
13872;SDS011;7006;51.494;11.964;2022-09-01T13:35:08;2.37;;;0.87;;
13872;SDS011;7006;51.494;11.964;2022-09-01T13:37:36;7.87;;;1.50;;
13872;SDS011;7006;51.494;11.964;2022-09-01T13:40:03;7.40;;;1.43;;
13872;SDS011;7006;51.494;11.964;2022-09-01T13:42:31;7.90;;;1.20;;
13872;SDS011;7006;51.494;11.964;2022-09-01T13:44:57;3.20;;;1.00;;
13872;SDS011;7006;51.494;11.964;2022-09-01T13:47:24;5.40;;;1.00;;
13872;SDS011;7006;51.494;11.964;2022-09-01T13:49:51;2.50;;;1.10;;
13872;SDS011;7006;51.494;11.964;2022-09-01T13:52:19;3.93;;;0.83;;
13872;SDS011;7006;51.494;11.964;2022-09-01T13:54:46;3.40;;;1.00;;
13872;SDS011;7006;51.494;11.964;2022-09-01T13:57:12;2.13;;;0.90;;
13872;SDS011;7006;51.494;11.964;2022-09-01T13:59:40;2.70;;;0.93;;
13872;SDS011;7006;51.494;11.964;2022-09-01T14:02:07;2.37;;;1.00;;
13872;SDS011;7006;51.494;11.964;2022-09-01T14:04:34;2.90;;;1.00;;
13872;SDS011;7006;51.494;11.964;2022-09-01T14:07:01;6.30;;;1.23;;
13872;SDS011;7006;51.494;11.964;2022-09-01T14:09:28;16.80;;;3.00;;
13872;SDS011;7006;51.494;11.964;2022-09-01T14:11:55;9.03;;;1.50;;
13872;SDS011;7006;51.494;11.964;2022-09-01T14:14:21;6.07;;;1.00;;
13872;SDS011;7006;51.494;11.964;2022-09-01T14:16:48;3.97;;;1.10;;
13872;SDS011;7006;51.494;11.964;2022-09-01T14:19:14;2.67;;;0.90;;
13872;SDS011;7006;51.494;11.964;2022-09-01T14:21:41;7.80;;;1.40;;
13872;SDS011;7006;51.494;11.964;2022-09-01T14:24:09;6.70;;;1.40;;
13872;SDS011;7006;51.494;11.964;2022-09-01T14:26:36;4.50;;;1.20;;
13872;SDS011;7006;51.494;11.964;2022-09-01T14:29:02;4.70;;;1.23;;
13872;SDS011;7006;51.494;11.964;2022-09-01T14:31:29;2.53;;;0.80;;
13872;SDS011;7006;51.494;11.964;2022-09-01T14:33:56;1.83;;;1.00;;
13872;SDS011;7006;51.494;11.964;2022-09-01T14:36:23;2.67;;;1.27;;
13872;SDS011;7006;51.494;11.964;2022-09-01T14:38:51;3.37;;;1.27;;
13872;SDS011;7006;51.494;11.964;2022-09-01T14:41:21;1.77;;;0.90;;
13872;SDS011;7006;51.494;11.964;2022-09-01T14:43:57;2.13;;;0.90;;
13872;SDS011;7006;51.494;11.964;2022-09-01T14:46:26;6.70;;;1.70;;
13872;SDS011;7006;51.494;11.964;2022-09-01T14:48:54;3.23;;;0.97;;
13872;SDS011;7006;51.494;11.964;2022-09-01T14:51:22;7.20;;;1.70;;
13872;SDS011;7006;51.494;11.964;2022-09-01T14:53:51;7.00;;;1.30;;
13872;SDS011;7006;51.494;11.964;2022-09-01T14:56:18;4.50;;;1.50;;
13872;SDS011;7006;51.494;11.964;2022-09-01T14:58:47;2.70;;;1.63;;
13872;SDS011;7006;51.494;11.964;2022-09-01T15:01:16;3.67;;;1.33;;
13872;SDS011;7006;51.494;11.964;2022-09-01T15:03:45;2.03;;;0.87;;
13872;SDS011;7006;51.494;11.964;2022-09-01T15:06:13;2.50;;;1.20;;
13872;SDS011;7006;51.494;11.964;2022-09-01T15:08:41;3.87;;;1.10;;
13872;SDS011;7006;51.494;11.964;2022-09-01T15:11:08;3.87;;;1.30;;
13872;SDS011;7006;51.494;11.964;2022-09-01T15:13:36;4.90;;;1.33;;
13872;SDS011;7006;51.494;11.964;2022-09-01T15:16:04;5.23;;;1.57;;
13872;SDS011;7006;51.494;11.964;2022-09-01T15:18:42;2.97;;;0.90;;
13872;SDS011;7006;51.494;11.964;2022-09-01T15:21:16;5.43;;;1.23;;